Time;durP1;ratioP1;P1;durP2;ratioP2;P2;SDS_P1;SDS_P2;PMS_P1;PMS_P2;Temp;Humidity;BMP_temperature;BMP_pressure;BME280_temperature;BME280_humidity;BME280_pressure;Samples;Min_cycle;Max_cycle;Signal;HPM_P1;HPM_P2
2023/06/19 00:00:46;;;;;;;8.40;7.80;;;24.30;69.80;;;;;;6091776;23;20450;-72
2023/06/19 00:03:14;;;;;;;8.50;7.90;;;24.30;69.90;;;;;;6113320;23;20462;-73
2023/06/19 00:05:41;;;;;;;8.30;7.70;;;24.10;70.00;;;;;;6118343;23;20524;-73
2023/06/19 00:08:08;;;;;;;8.70;8.03;;;24.00;70.00;;;;;;6105956;23;20473;-73
2023/06/19 00:10:35;;;;;;;8.97;8.20;;;24.00;70.30;;;;;;6115455;23;20505;-73
2023/06/19 00:13:03;;;;;;;9.17;8.27;;;23.90;70.50;;;;;;6102039;23;20470;-73
2023/06/19 00:15:30;;;;;;;8.17;7.47;;;23.80;70.70;;;;;;6110906;23;20577;-72
2023/06/19 00:17:58;;;;;;;8.93;8.33;;;23.80;71.20;;;;;;6113403;23;20516;-72
2023/06/19 00:20:26;;;;;;;8.20;7.70;;;23.80;71.60;;;;;;6115365;23;20515;-72
2023/06/19 00:22:54;;;;;;;8.43;7.67;;;23.80;71.90;;;;;;6117006;23;20524;-72
2023/06/19 00:25:20;;;;;;;8.03;7.37;;;23.80;71.90;;;;;;6118218;23;20434;-73
2023/06/19 00:27:48;;;;;;;8.37;7.77;;;23.90;72.20;;;;;;6115992;23;20942;-73
2023/06/19 00:30:15;;;;;;;8.80;8.20;;;24.00;72.60;;;;;;6091946;23;20450;-72
2023/06/19 00:32:49;;;;;;;8.00;7.40;;;24.00;72.60;;;;;;6109740;23;20505;-73
2023/06/19 00:35:17;;;;;;;8.57;7.97;;;24.00;72.60;;;;;;6115532;23;20845;-73
2023/06/19 00:37:46;;;;;;;8.37;7.77;;;24.00;72.80;;;;;;6116920;23;20448;-73
2023/06/19 00:40:27;;;;;;;8.30;7.70;;;24.00;72.80;;;;;;6115395;23;20439;-73
2023/06/19 00:42:55;;;;;;;8.70;8.10;;;24.10;72.80;;;;;;6114726;23;20465;-73
2023/06/19 00:45:23;;;;;;;8.83;8.23;;;24.10;73.00;;;;;;6117100;23;20965;-72
2023/06/19 00:47:51;;;;;;;8.50;7.90;;;24.10;73.00;;;;;;6120005;23;20427;-72
2023/06/19 00:50:18;;;;;;;7.90;7.40;;;24.10;73.50;;;;;;6112274;23;20517;-72
2023/06/19 00:52:46;;;;;;;8.23;7.63;;;24.10;73.40;;;;;;6107802;23;20464;-72
2023/06/19 00:55:15;;;;;;;7.80;7.20;;;24.20;73.70;;;;;;6106975;23;20500;-73
2023/06/19 00:57:43;;;;;;;8.13;7.40;;;24.10;73.30;;;;;;6115679;23;20436;-72
2023/06/19 01:00:12;;;;;;;8.40;7.77;;;24.20;73.50;;;;;;6112209;23;20430;-72
2023/06/19 01:02:40;;;;;;;7.90;7.30;;;24.20;74.60;;;;;;6118420;23;20537;-72
2023/06/19 01:05:07;;;;;;;8.13;7.43;;;24.20;73.80;;;;;;6111103;23;20442;-73
2023/06/19 01:07:43;;;;;;;8.63;7.83;;;24.20;74.40;;;;;;6112168;23;20440;-73
2023/06/19 01:10:17;;;;;;;7.90;7.33;;;24.20;73.80;;;;;;6098509;23;21194;-72
2023/06/19 01:12:51;;;;;;;7.23;6.63;;;24.20;74.40;;;;;;6101949;23;20489;-72
2023/06/19 01:15:20;;;;;;;8.30;7.60;;;24.10;74.60;;;;;;6114250;23;20444;-72
2023/06/19 01:17:48;;;;;;;7.03;6.40;;;24.10;75.00;;;;;;6115236;23;21020;-72
2023/06/19 01:20:16;;;;;;;7.47;6.77;;;24.00;75.10;;;;;;6116755;23;20429;-72
2023/06/19 01:22:45;;;;;;;8.97;7.27;;;23.90;75.40;;;;;;6103286;23;20560;-72
2023/06/19 01:25:13;;;;;;;8.73;6.10;;;23.80;75.60;;;;;;6114524;23;20487;-72
2023/06/19 01:27:42;;;;;;;8.17;5.83;;;23.80;76.60;;;;;;6115945;23;20945;-73
2023/06/19 01:30:12;;;;;;;5.60;5.10;;;23.70;77.00;;;;;;6114635;23;20440;-72
2023/06/19 01:32:48;;;;;;;6.97;5.90;;;23.60;77.60;;;;;;6113979;23;20540;-72
2023/06/19 01:35:18;;;;;;;5.80;4.90;;;23.60;78.20;;;;;;6102129;23;20457;-72
2023/06/19 01:37:48;;;;;;;5.97;5.07;;;23.50;78.50;;;;;;6116287;23;20423;-72
2023/06/19 01:40:17;;;;;;;4.70;3.87;;;23.50;78.90;;;;;;6108259;23;20433;-72
2023/06/19 01:42:44;;;;;;;4.10;3.90;;;23.40;79.30;;;;;;6113097;23;20434;-72
2023/06/19 01:45:12;;;;;;;4.33;3.90;;;23.50;79.80;;;;;;6109399;23;20487;-72
2023/06/19 01:47:39;;;;;;;4.33;4.00;;;23.50;80.50;;;;;;6107707;23;20494;-72
2023/06/19 01:50:07;;;;;;;4.70;4.10;;;23.50;80.90;;;;;;6115891;23;20461;-72
2023/06/19 01:52:34;;;;;;;4.00;3.80;;;23.40;81.50;;;;;;6108386;23;20552;-72
2023/06/19 01:55:03;;;;;;;4.63;4.27;;;23.40;81.90;;;;;;6117110;23;20496;-72
2023/06/19 01:57:30;;;;;;;5.00;4.03;;;23.40;82.60;;;;;;6100298;23;20438;-72
2023/06/19 01:59:57;;;;;;;4.70;4.40;;;23.40;82.90;;;;;;6103692;23;20470;-72
2023/06/19 02:02:24;;;;;;;6.13;3.90;;;23.30;83.50;;;;;;6107069;23;20465;-72
2023/06/19 02:04:51;;;;;;;5.17;4.77;;;23.30;84.10;;;;;;6117285;23;20434;-72
2023/06/19 02:07:18;;;;;;;5.00;4.60;;;23.20;85.50;;;;;;6100300;23;20521;-72
2023/06/19 02:09:46;;;;;;;5.50;5.10;;;23.10;86.80;;;;;;6116332;23;20521;-72
2023/06/19 02:12:14;;;;;;;4.90;4.60;;;23.00;88.10;;;;;;6118315;23;20519;-72
2023/06/19 02:14:41;;;;;;;4.90;4.60;;;23.00;89.10;;;;;;6112971;23;20466;-72
2023/06/19 02:17:08;;;;;;;5.40;5.03;;;22.90;89.90;;;;;;6098277;23;20910;-72
2023/06/19 02:19:35;;;;;;;6.00;4.73;;;22.90;90.30;;;;;;6108019;23;20516;-72
2023/06/19 02:22:02;;;;;;;5.23;4.77;;;22.90;90.90;;;;;;6116796;23;20529;-72
2023/06/19 02:24:30;;;;;;;4.60;4.30;;;22.90;91.30;;;;;;6115312;23;20523;-72
2023/06/19 02:26:58;;;;;;;5.30;4.90;;;22.90;91.80;;;;;;6118704;23;20465;-72
2023/06/19 02:29:26;;;;;;;5.00;4.67;;;22.90;92.30;;;;;;6113344;23;20436;-72
2023/06/19 02:31:53;;;;;;;5.70;5.00;;;22.80;92.70;;;;;;6098259;23;20450;-72
2023/06/19 02:34:20;;;;;;;5.30;4.87;;;22.80;93.10;;;;;;6094736;23;20528;-72
2023/06/19 02:36:47;;;;;;;5.33;5.00;;;22.80;93.70;;;;;;6115962;23;21006;-72
2023/06/19 02:39:15;;;;;;;4.93;4.53;;;22.80;94.10;;;;;;6118215;23;20496;-72
2023/06/19 02:41:45;;;;;;;5.20;4.80;;;22.80;94.50;;;;;;6116023;23;20858;-73
2023/06/19 02:44:12;;;;;;;4.97;4.67;;;22.70;95.10;;;;;;6102026;23;20445;-72
2023/06/19 02:46:41;;;;;;;5.70;4.73;;;22.70;95.70;;;;;;6104265;23;20442;-72
2023/06/19 02:49:08;;;;;;;4.80;4.40;;;22.70;96.50;;;;;;6099736;23;20441;-72
2023/06/19 02:51:35;;;;;;;5.10;4.57;;;22.60;96.90;;;;;;6099107;23;20529;-72
2023/06/19 02:54:02;;;;;;;4.23;4.00;;;22.60;97.10;;;;;;6103074;23;20469;-73
2023/06/19 02:56:29;;;;;;;3.90;3.70;;;22.60;97.30;;;;;;6118575;23;20441;-72
2023/06/19 02:58:56;;;;;;;4.60;4.30;;;22.60;97.60;;;;;;6119196;23;20429;-72
2023/06/19 03:01:24;;;;;;;4.10;3.80;;;22.50;98.00;;;;;;6114639;23;20484;-72
2023/06/19 03:03:52;;;;;;;4.90;4.60;;;22.50;98.50;;;;;;6116352;23;20445;-72
2023/06/19 03:06:19;;;;;;;5.90;4.20;;;22.50;99.10;;;;;;6107009;23;20918;-73
2023/06/19 03:08:47;;;;;;;4.50;4.20;;;22.50;99.40;;;;;;6109845;23;20465;-72
2023/06/19 03:11:14;;;;;;;4.30;4.00;;;22.50;99.40;;;;;;6115852;23;20466;-72
2023/06/19 03:13:46;;;;;;;4.67;4.37;;;22.50;99.30;;;;;;6118421;23;20519;-72
2023/06/19 03:16:14;;;;;;;4.27;4.07;;;22.60;99.10;;;;;;6115451;23;20457;-72
2023/06/19 03:18:41;;;;;;;4.60;4.30;;;22.60;99.10;;;;;;6119152;23;20442;-72
2023/06/19 03:21:09;;;;;;;4.97;4.57;;;22.70;99.20;;;;;;6118272;23;20465;-73
2023/06/19 03:23:36;;;;;;;4.20;4.00;;;22.70;99.30;;;;;;6110007;23;20437;-72
2023/06/19 03:26:04;;;;;;;4.47;4.10;;;22.70;99.20;;;;;;6090650;23;20484;-72
2023/06/19 03:28:31;;;;;;;4.33;4.03;;;22.80;99.30;;;;;;6092432;23;20437;-72
2023/06/19 03:30:58;;;;;;;4.47;4.17;;;22.80;99.20;;;;;;6104867;23;20463;-72
2023/06/19 03:33:25;;;;;;;4.40;4.10;;;22.80;99.20;;;;;;6118276;23;20786;-72
2023/06/19 03:35:52;;;;;;;4.33;4.03;;;22.90;99.20;;;;;;6095480;23;20527;-72
2023/06/19 03:38:20;;;;;;;3.53;3.33;;;22.80;99.10;;;;;;6093885;23;20458;-72
2023/06/19 03:40:47;;;;;;;3.60;3.40;;;22.90;99.00;;;;;;6116955;23;20527;-72
2023/06/19 03:43:15;;;;;;;3.93;3.63;;;22.90;99.00;;;;;;6097145;23;20440;-72
2023/06/19 03:45:42;;;;;;;3.90;3.53;;;22.90;98.80;;;;;;6117112;23;20953;-72
2023/06/19 03:48:09;;;;;;;3.53;3.33;;;23.00;99.00;;;;;;6119120;23;20846;-72
2023/06/19 03:50:36;;;;;;;3.80;3.50;;;23.00;98.80;;;;;;6120457;23;20463;-72
2023/06/19 03:53:04;;;;;;;4.00;3.70;;;23.00;98.70;;;;;;6116927;23;20536;-72
2023/06/19 03:55:32;;;;;;;4.37;4.07;;;23.10;98.90;;;;;;6113135;23;20931;-72
2023/06/19 03:57:59;;;;;;;3.63;3.43;;;23.10;98.80;;;;;;6090905;23;20418;-72
2023/06/19 04:00:27;;;;;;;3.70;3.50;;;23.10;98.60;;;;;;6093510;23;20454;-72
2023/06/19 04:02:54;;;;;;;3.80;3.50;;;23.10;98.40;;;;;;6094970;23;20422;-72
2023/06/19 04:05:21;;;;;;;3.90;3.60;;;23.10;98.60;;;;;;6097917;23;20425;-72
2023/06/19 04:07:48;;;;;;;3.97;3.70;;;23.10;98.60;;;;;;6090667;23;20509;-72
2023/06/19 04:10:15;;;;;;;3.47;3.27;;;23.00;98.60;;;;;;6091826;23;20476;-72
2023/06/19 04:12:45;;;;;;;3.27;3.07;;;23.00;98.80;;;;;;6094008;23;20521;-72
2023/06/19 04:15:12;;;;;;;4.10;3.80;;;23.00;99.10;;;;;;6086337;23;21060;-72
2023/06/19 04:17:39;;;;;;;4.03;3.73;;;23.00;99.20;;;;;;6091618;23;20438;-72
2023/06/19 04:20:10;;;;;;;3.50;3.20;;;22.90;99.20;;;;;;6107061;23;21011;-72
2023/06/19 04:22:38;;;;;;;3.33;3.13;;;22.90;99.30;;;;;;6093583;23;20788;-72
2023/06/19 04:25:07;;;;;;;3.10;2.90;;;22.80;99.80;;;;;;6080902;23;20571;-72
2023/06/19 04:27:33;;;;;;;3.47;3.17;;;22.70;99.90;;;;;;6099853;23;20443;-72
2023/06/19 04:30:06;;;;;;;3.43;3.13;;;22.60;99.90;;;;;;6100580;23;20503;-72
2023/06/19 04:32:34;;;;;;;3.40;3.13;;;22.60;99.90;;;;;;6099883;23;20437;-72
2023/06/19 04:35:01;;;;;;;3.20;3.00;;;22.50;99.90;;;;;;6101737;23;20462;-71
2023/06/19 04:37:28;;;;;;;3.07;2.87;;;22.40;99.90;;;;;;6111447;23;20426;-73
2023/06/19 04:39:55;;;;;;;3.37;3.07;;;22.40;99.90;;;;;;6104740;23;20896;-72
2023/06/19 04:42:23;;;;;;;3.20;2.93;;;22.30;99.90;;;;;;6106868;23;20417;-71
2023/06/19 04:44:50;;;;;;;2.93;2.73;;;22.20;99.90;;;;;;6101902;23;20425;-73
2023/06/19 04:47:21;;;;;;;2.70;2.50;;;22.20;99.90;;;;;;6102688;23;20469;-72
2023/06/19 04:49:48;;;;;;;2.67;2.47;;;22.10;99.90;;;;;;6101943;23;20454;-71
2023/06/19 04:52:15;;;;;;;3.20;3.00;;;22.00;99.90;;;;;;6104233;23;20890;-71
2023/06/19 04:54:42;;;;;;;3.03;2.73;;;22.00;99.90;;;;;;6103103;23;20461;-72
2023/06/19 04:57:10;;;;;;;2.90;2.70;;;22.00;99.90;;;;;;6105781;23;21233;-73
2023/06/19 04:59:37;;;;;;;3.00;2.80;;;22.10;99.90;;;;;;6101014;23;20510;-72
2023/06/19 05:02:04;;;;;;;2.83;2.63;;;22.20;99.90;;;;;;6092650;23;20433;-72
2023/06/19 05:04:33;;;;;;;2.37;2.27;;;22.20;99.90;;;;;;6096333;23;20442;-72
2023/06/19 05:07:00;;;;;;;3.27;3.07;;;22.20;99.90;;;;;;6092767;23;20437;-73
2023/06/19 05:09:27;;;;;;;2.87;2.67;;;22.20;99.90;;;;;;6098002;23;20457;-72
2023/06/19 05:11:54;;;;;;;2.70;2.50;;;22.30;99.90;;;;;;6096010;23;20437;-73
2023/06/19 05:14:21;;;;;;;2.90;2.70;;;22.40;99.90;;;;;;6101214;23;20492;-71
2023/06/19 05:16:48;;;;;;;3.07;2.77;;;22.50;99.90;;;;;;6093057;23;20441;-72
2023/06/19 05:19:16;;;;;;;2.93;2.70;;;22.60;99.90;;;;;;6090846;23;20469;-73
2023/06/19 05:21:44;;;;;;;3.20;2.90;;;22.70;99.90;;;;;;6083782;23;20521;-72
2023/06/19 05:24:11;;;;;;;3.10;2.90;;;22.70;99.90;;;;;;6071638;23;20445;-73
2023/06/19 05:26:39;;;;;;;3.10;2.90;;;22.80;99.90;;;;;;6082440;23;20483;-73
2023/06/19 05:29:08;;;;;;;2.80;2.60;;;22.80;99.90;;;;;;6100562;23;20588;-73
2023/06/19 05:31:35;;;;;;;3.37;3.07;;;22.90;99.90;;;;;;6098470;23;20989;-73
2023/06/19 05:34:03;;;;;;;3.17;2.97;;;22.90;99.90;;;;;;6099616;23;20458;-73
2023/06/19 05:36:30;;;;;;;3.00;2.80;;;22.90;99.90;;;;;;6106773;23;20441;-73
2023/06/19 05:38:58;;;;;;;3.20;2.83;;;23.00;99.90;;;;;;6092094;23;20785;-73
2023/06/19 05:41:26;;;;;;;4.30;2.90;;;23.00;99.90;;;;;;6093604;23;20794;-72
2023/06/19 05:43:53;;;;;;;3.00;2.70;;;23.00;99.90;;;;;;6089751;23;20477;-72
2023/06/19 05:46:20;;;;;;;3.30;2.90;;;23.00;99.90;;;;;;6102895;23;20512;-73
2023/06/19 05:48:47;;;;;;;3.57;3.00;;;23.00;99.90;;;;;;6096426;23;20930;-72
2023/06/19 05:51:15;;;;;;;3.57;3.37;;;23.00;99.90;;;;;;6107179;23;20457;-73
2023/06/19 05:53:42;;;;;;;3.80;3.60;;;23.10;99.90;;;;;;6088668;23;20818;-72
2023/06/19 05:56:11;;;;;;;3.87;3.57;;;23.10;99.90;;;;;;6092309;23;20458;-72
2023/06/19 05:58:38;;;;;;;3.23;2.93;;;23.10;99.90;;;;;;6107787;23;20768;-73
2023/06/19 06:01:06;;;;;;;3.40;3.20;;;23.10;99.90;;;;;;6095017;23;20454;-73
2023/06/19 06:03:34;;;;;;;3.00;2.80;;;23.10;99.90;;;;;;6107644;23;20443;-84
2023/06/19 06:06:03;;;;;;;3.50;3.20;;;23.20;99.90;;;;;;6115987;23;20435;-80
2023/06/19 06:08:30;;;;;;;3.47;3.27;;;23.20;99.90;;;;;;6096077;23;20762;-78
2023/06/19 06:10:57;;;;;;;3.07;2.87;;;23.10;99.90;;;;;;6094497;23;20458;-78
2023/06/19 06:13:26;;;;;;;3.63;3.40;;;23.00;99.90;;;;;;6099643;23;20431;-76
2023/06/19 06:15:53;;;;;;;3.97;3.33;;;23.10;99.90;;;;;;6084084;23;20437;-78
2023/06/19 06:18:20;;;;;;;3.20;3.00;;;23.10;99.90;;;;;;6088361;23;20495;-79
2023/06/19 06:20:47;;;;;;;3.40;3.10;;;23.30;99.90;;;;;;6099406;23;20511;-78
2023/06/19 06:23:15;;;;;;;3.27;3.00;;;23.40;99.90;;;;;;6095200;23;20803;-79
2023/06/19 06:25:42;;;;;;;3.60;3.30;;;23.40;99.90;;;;;;6094677;23;20444;-79
2023/06/19 06:28:09;;;;;;;3.80;3.50;;;23.50;99.90;;;;;;6094513;23;20520;-79
2023/06/19 06:30:38;;;;;;;3.33;3.00;;;23.50;99.90;;;;;;6096325;23;20451;-79
2023/06/19 06:33:06;;;;;;;3.37;3.17;;;23.50;99.90;;;;;;6091443;23;20466;-79
2023/06/19 06:35:34;;;;;;;3.53;3.23;;;23.50;99.90;;;;;;6088599;23;20564;-79
2023/06/19 06:38:01;;;;;;;4.23;3.20;;;23.60;99.90;;;;;;6098861;23;20851;-79
2023/06/19 06:40:28;;;;;;;3.63;3.37;;;23.70;99.90;;;;;;6087980;23;21149;-79
2023/06/19 06:42:55;;;;;;;3.40;3.10;;;23.70;99.90;;;;;;6092429;23;20484;-79
2023/06/19 06:45:22;;;;;;;3.30;3.10;;;23.70;99.90;;;;;;6068815;23;20487;-79
2023/06/19 06:47:52;;;;;;;3.10;2.90;;;23.60;99.90;;;;;;6085604;23;20438;-79
2023/06/19 06:50:19;;;;;;;3.30;3.00;;;23.70;99.90;;;;;;6075923;23;21025;-79
2023/06/19 06:52:46;;;;;;;3.60;3.30;;;23.80;99.90;;;;;;6075509;23;20448;-79
2023/06/19 06:55:14;;;;;;;3.23;3.03;;;23.90;99.90;;;;;;6088966;23;20593;-79
2023/06/19 06:57:41;;;;;;;3.47;3.27;;;24.10;99.90;;;;;;6107048;23;20467;-80
2023/06/19 07:00:11;;;;;;;3.53;3.23;;;24.30;99.90;;;;;;6087312;23;20453;-79
2023/06/19 07:02:39;;;;;;;3.37;3.17;;;24.50;99.90;;;;;;6090007;23;20446;-79
2023/06/19 07:05:10;;;;;;;3.93;3.40;;;24.70;99.90;;;;;;6094344;23;20442;-79
2023/06/19 07:07:38;;;;;;;2.93;2.73;;;24.80;99.90;;;;;;6090930;23;20457;-79
2023/06/19 07:10:07;;;;;;;3.30;3.00;;;25.00;99.90;;;;;;6089959;23;20814;-82
2023/06/19 07:12:34;;;;;;;3.27;3.07;;;25.10;99.90;;;;;;6090582;23;20844;-79
2023/06/19 07:15:01;;;;;;;3.20;3.00;;;25.30;99.90;;;;;;6097354;23;20492;-78
2023/06/19 07:17:28;;;;;;;3.13;2.83;;;25.40;99.90;;;;;;6091382;23;20470;-79
2023/06/19 07:19:55;;;;;;;3.03;2.77;;;25.60;99.90;;;;;;6092770;23;20453;-79
2023/06/19 07:22:24;;;;;;;2.50;2.37;;;25.60;99.90;;;;;;6085614;23;20431;-79
2023/06/19 07:24:51;;;;;;;3.23;3.03;;;25.60;99.90;;;;;;6080118;23;20516;-79
2023/06/19 07:27:18;;;;;;;3.17;2.87;;;25.40;99.90;;;;;;6097793;23;20438;-79
2023/06/19 07:29:45;;;;;;;3.20;2.50;;;25.40;99.90;;;;;;6095192;23;20453;-79
2023/06/19 07:32:13;;;;;;;3.40;3.13;;;25.30;99.90;;;;;;6102644;23;20900;-79
2023/06/19 07:34:40;;;;;;;3.30;3.10;;;25.20;99.90;;;;;;6086373;23;20469;-79
2023/06/19 07:37:07;;;;;;;2.97;2.77;;;25.20;99.90;;;;;;6086612;23;20465;-79
2023/06/19 07:39:35;;;;;;;3.80;2.77;;;25.20;99.90;;;;;;6087921;23;20534;-81
2023/06/19 07:42:02;;;;;;;2.90;2.70;;;25.40;99.90;;;;;;6069647;23;20435;-76
2023/06/19 07:44:29;;;;;;;3.07;2.87;;;25.60;99.90;;;;;;6093877;23;20443;-77
2023/06/19 07:46:57;;;;;;;2.90;2.70;;;25.60;99.40;;;;;;6096687;23;20434;-75
2023/06/19 07:49:23;;;;;;;2.90;2.70;;;25.70;99.40;;;;;;6100538;23;20473;-82
2023/06/19 07:51:50;;;;;;;2.80;2.60;;;25.80;99.60;;;;;;6104786;23;20484;-75
2023/06/19 07:54:18;;;;;;;3.13;2.93;;;25.80;99.90;;;;;;6107713;23;21037;-79
2023/06/19 07:56:46;;;;;;;3.50;2.60;;;25.90;99.50;;;;;;6097794;23;20991;-74
2023/06/19 07:59:13;;;;;;;3.23;2.93;;;26.00;99.20;;;;;;6102367;23;20482;-75
2023/06/19 08:01:41;;;;;;;2.80;2.60;;;26.10;99.10;;;;;;6090606;23;20474;-77
2023/06/19 08:04:08;;;;;;;3.10;2.80;;;26.30;99.10;;;;;;6093178;23;20785;-76
2023/06/19 08:06:35;;;;;;;3.00;2.80;;;26.40;99.00;;;;;;6080860;23;20473;-76
2023/06/19 08:09:03;;;;;;;3.00;2.80;;;26.50;99.80;;;;;;6082661;23;21929;-76
2023/06/19 08:11:30;;;;;;;3.10;2.90;;;26.80;98.20;;;;;;6074865;23;20447;-76
2023/06/19 08:13:58;;;;;;;3.00;2.80;;;27.10;98.00;;;;;;6091236;23;20881;-74
2023/06/19 08:16:27;;;;;;;3.60;3.30;;;27.00;97.50;;;;;;6097193;23;20466;-75
2023/06/19 08:18:54;;;;;;;3.33;3.03;;;26.90;97.50;;;;;;6079261;23;20541;-76
2023/06/19 08:21:21;;;;;;;2.73;2.53;;;26.80;97.90;;;;;;6104268;23;20437;-75
2023/06/19 08:23:48;;;;;;;3.27;3.07;;;26.60;98.30;;;;;;6098246;23;20527;-75
2023/06/19 08:26:15;;;;;;;2.70;2.60;;;26.40;98.20;;;;;;6103956;23;20956;-76
2023/06/19 08:28:42;;;;;;;4.03;2.80;;;26.40;98.40;;;;;;6112565;23;20516;-75
2023/06/19 08:31:11;;;;;;;3.37;3.17;;;26.60;98.00;;;;;;6087664;23;20450;-74
2023/06/19 08:33:38;;;;;;;3.33;3.13;;;26.80;97.60;;;;;;6100080;23;20541;-75
2023/06/19 08:36:05;;;;;;;2.80;2.60;;;27.10;97.70;;;;;;6111284;23;20461;-74
2023/06/19 08:38:32;;;;;;;3.30;3.10;;;27.30;97.40;;;;;;6087619;23;20516;-75
2023/06/19 08:41:00;;;;;;;3.00;2.80;;;27.50;97.00;;;;;;6097410;23;20437;-75
2023/06/19 08:43:27;;;;;;;3.07;2.87;;;27.80;95.50;;;;;;6104427;23;20930;-75
2023/06/19 08:46:07;;;;;;;2.93;2.73;;;28.00;95.00;;;;;;6095401;23;20510;-75
2023/06/19 08:48:37;;;;;;;2.90;2.70;;;28.20;95.50;;;;;;6083100;23;20464;-75
2023/06/19 08:51:05;;;;;;;2.97;2.67;;;28.60;94.70;;;;;;6088697;23;20438;-76
2023/06/19 08:53:35;;;;;;;3.00;2.77;;;29.00;93.30;;;;;;6083865;23;20441;-75
2023/06/19 08:56:03;;;;;;;3.10;2.90;;;29.10;92.80;;;;;;6104147;23;20469;-76
2023/06/19 08:58:30;;;;;;;2.73;2.53;;;29.00;92.30;;;;;;6106435;23;20433;-75
2023/06/19 09:00:59;;;;;;;2.83;2.73;;;29.10;92.50;;;;;;6088926;23;20441;-75
2023/06/19 09:03:26;;;;;;;3.37;3.13;;;29.30;91.80;;;;;;6092447;23;20438;-74
2023/06/19 09:05:54;;;;;;;3.00;2.80;;;29.50;91.30;;;;;;6093269;23;20520;-75
2023/06/19 09:08:23;;;;;;;3.27;3.07;;;29.50;91.50;;;;;;6073519;23;20438;-76
2023/06/19 09:11:00;;;;;;;2.80;2.50;;;29.40;90.90;;;;;;6100012;23;20488;-76
2023/06/19 09:13:29;;;;;;;2.40;2.30;;;29.70;90.20;;;;;;6099199;23;20927;-76
2023/06/19 09:16:02;;;;;;;3.33;3.13;;;30.10;90.30;;;;;;6112466;23;21051;-75
2023/06/19 09:18:31;;;;;;;2.77;2.57;;;30.50;88.00;;;;;;6088313;23;20459;-77
2023/06/19 09:21:00;;;;;;;3.00;2.90;;;30.90;86.70;;;;;;6097046;23;20524;-76
2023/06/19 09:23:27;;;;;;;2.70;2.60;;;31.20;84.70;;;;;;6098679;23;20458;-76
2023/06/19 09:25:55;;;;;;;2.97;2.77;;;31.60;84.10;;;;;;6097719;23;20526;-77
2023/06/19 09:28:24;;;;;;;3.70;2.77;;;32.00;81.70;;;;;;6099875;23;20433;-76
2023/06/19 09:30:56;;;;;;;4.60;3.30;;;32.20;79.90;;;;;;6090365;23;20442;-76
2023/06/19 09:33:24;;;;;;;2.67;2.57;;;32.00;79.40;;;;;;6100102;23;20520;-76
2023/06/19 09:35:51;;;;;;;3.10;2.90;;;31.90;80.80;;;;;;6088542;23;20556;-76
2023/06/19 09:38:22;;;;;;;3.07;2.87;;;32.30;80.60;;;;;;6087237;23;20442;-76
2023/06/19 09:40:50;;;;;;;3.00;2.80;;;32.70;79.10;;;;;;6094305;23;20445;-77
2023/06/19 09:43:20;;;;;;;3.43;3.23;;;33.20;77.30;;;;;;6096123;23;20431;-78
2023/06/19 09:45:50;;;;;;;3.43;3.23;;;33.60;77.20;;;;;;6075726;23;20521;-77
2023/06/19 09:48:20;;;;;;;3.30;3.10;;;33.90;75.80;;;;;;6075601;23;20433;-76
2023/06/19 09:50:51;;;;;;;3.70;3.50;;;34.20;75.00;;;;;;6088984;23;20975;-77
2023/06/19 09:53:20;;;;;;;3.57;3.27;;;34.30;74.40;;;;;;6090368;23;20414;-76
2023/06/19 09:55:50;;;;;;;3.03;2.93;;;34.50;73.60;;;;;;6097334;23;20556;-76
2023/06/19 09:58:17;;;;;;;3.70;3.40;;;34.70;73.20;;;;;;6105197;23;21087;-76
2023/06/19 10:00:46;;;;;;;3.57;3.37;;;34.70;72.30;;;;;;6107717;23;20446;-76
2023/06/19 10:03:14;;;;;;;3.40;3.20;;;34.90;71.00;;;;;;6095159;23;20866;-76
2023/06/19 10:05:41;;;;;;;3.37;3.17;;;34.40;71.80;;;;;;6091654;23;20441;-76
2023/06/19 10:08:08;;;;;;;3.53;3.33;;;34.20;72.40;;;;;;6111099;23;20445;-75
2023/06/19 10:10:37;;;;;;;3.73;3.43;;;34.10;71.70;;;;;;6114546;23;20434;-77
2023/06/19 10:13:14;;;;;;;3.43;3.13;;;34.30;72.00;;;;;;6105724;23;20978;-76
2023/06/19 10:15:43;;;;;;;3.73;3.47;;;34.50;72.00;;;;;;6095650;23;20989;-76
2023/06/19 10:18:16;;;;;;;3.70;3.50;;;34.20;71.00;;;;;;6102509;23;20421;-76
2023/06/19 10:20:44;;;;;;;3.83;3.53;;;34.00;71.90;;;;;;6106937;23;20439;-76
2023/06/19 10:23:13;;;;;;;3.73;3.53;;;33.80;72.20;;;;;;6099329;23;20914;-76
2023/06/19 10:25:43;;;;;;;3.90;3.60;;;33.80;72.30;;;;;;6096146;23;20434;-75
2023/06/19 10:28:21;;;;;;;3.50;3.30;;;33.90;72.10;;;;;;6103949;23;20553;-76
2023/06/19 10:30:54;;;;;;;3.20;3.00;;;34.10;71.80;;;;;;6097168;23;20937;-76
2023/06/19 10:33:22;;;;;;;3.33;3.13;;;34.40;71.50;;;;;;6105685;23;20513;-77
2023/06/19 10:35:49;;;;;;;4.10;3.60;;;34.80;70.30;;;;;;6111670;23;20560;-78
2023/06/19 10:38:16;;;;;;;3.60;3.40;;;35.00;69.90;;;;;;6099545;23;20469;-77
2023/06/19 10:40:46;;;;;;;3.40;3.20;;;35.20;69.30;;;;;;6099587;23;20473;-78
2023/06/19 10:43:14;;;;;;;3.50;3.30;;;35.30;68.50;;;;;;6103944;23;20928;-78
2023/06/19 10:45:41;;;;;;;3.13;2.93;;;35.50;68.80;;;;;;6099874;23;20772;-76
2023/06/19 10:48:08;;;;;;;2.90;2.70;;;35.80;68.60;;;;;;6109321;23;20462;-76
2023/06/19 10:50:36;;;;;;;3.43;3.23;;;36.00;66.60;;;;;;6107188;23;20926;-76
2023/06/19 10:53:03;;;;;;;3.17;2.97;;;36.00;65.50;;;;;;6109930;23;20925;-76
2023/06/19 10:55:30;;;;;;;4.13;3.73;;;35.60;66.80;;;;;;6099314;23;20473;-76
2023/06/19 10:57:58;;;;;;;3.57;3.27;;;35.40;66.50;;;;;;6096388;23;20468;-76
2023/06/19 11:00:27;;;;;;;3.87;3.67;;;35.30;66.40;;;;;;6096839;23;21173;-75
2023/06/19 11:02:55;;;;;;;3.23;3.03;;;35.10;66.70;;;;;;6096864;23;21003;-76
2023/06/19 11:05:23;;;;;;;3.37;3.10;;;35.00;67.20;;;;;;6098270;23;20426;-77
2023/06/19 11:07:55;;;;;;;3.30;3.10;;;34.90;66.80;;;;;;6092400;23;20524;-76
2023/06/19 11:10:23;;;;;;;3.20;3.00;;;34.90;67.70;;;;;;6102587;23;20468;-77
2023/06/19 11:12:51;;;;;;;3.63;3.30;;;34.90;67.80;;;;;;6102004;23;20469;-76
2023/06/19 11:15:19;;;;;;;4.30;4.00;;;34.70;67.60;;;;;;6097115;23;20434;-76
2023/06/19 11:17:48;;;;;;;3.90;3.70;;;34.50;68.10;;;;;;6094784;23;20470;-76
2023/06/19 11:20:15;;;;;;;3.73;3.50;;;34.30;68.20;;;;;;6097727;23;20476;-76
2023/06/19 11:22:43;;;;;;;3.60;3.40;;;34.20;68.20;;;;;;6103795;23;20432;-76
2023/06/19 11:25:11;;;;;;;3.53;3.33;;;34.00;68.20;;;;;;6073733;23;20447;-76
2023/06/19 11:27:40;;;;;;;3.80;3.50;;;33.60;68.20;;;;;;6071485;23;20430;-76
2023/06/19 11:30:09;;;;;;;3.17;2.97;;;33.30;70.50;;;;;;6092498;23;20457;-80
2023/06/19 11:32:41;;;;;;;3.63;3.43;;;33.60;70.60;;;;;;6079455;23;20442;-78
2023/06/19 11:35:11;;;;;;;3.47;3.27;;;34.00;69.20;;;;;;6078689;23;20438;-77
2023/06/19 11:37:41;;;;;;;3.53;3.33;;;34.40;68.20;;;;;;6085251;23;20488;-77
2023/06/19 11:40:14;;;;;;;3.43;3.23;;;34.40;68.00;;;;;;6060821;23;20449;-77
2023/06/19 11:42:47;;;;;;;3.80;3.60;;;34.70;68.30;;;;;;6080033;23;20464;-78
2023/06/19 11:45:14;;;;;;;3.53;3.33;;;35.10;66.60;;;;;;6090686;23;20533;-78
2023/06/19 11:47:44;;;;;;;3.50;3.30;;;35.40;64.80;;;;;;6098554;23;20516;-77
2023/06/19 11:50:12;;;;;;;3.83;3.60;;;35.30;65.80;;;;;;6088985;23;20450;-77
2023/06/19 11:52:39;;;;;;;3.90;3.70;;;35.60;65.50;;;;;;6109003;23;20442;-77
2023/06/19 11:55:07;;;;;;;3.30;3.10;;;35.90;64.70;;;;;;6111911;23;20450;-78
2023/06/19 11:57:34;;;;;;;4.20;3.77;;;35.50;63.10;;;;;;6098888;23;20540;-77
2023/06/19 12:00:03;;;;;;;3.53;3.33;;;34.70;65.00;;;;;;6093150;23;21034;-77
2023/06/19 12:02:31;;;;;;;3.60;3.40;;;33.90;66.60;;;;;;6109042;23;20447;-77
2023/06/19 12:04:59;;;;;;;4.10;3.90;;;33.60;66.80;;;;;;6102067;23;20544;-77
2023/06/19 12:07:26;;;;;;;3.60;3.40;;;33.50;67.80;;;;;;6084858;23;20518;-77
2023/06/19 12:09:53;;;;;;;3.63;3.43;;;33.60;68.50;;;;;;6101884;23;20461;-77
2023/06/19 12:12:20;;;;;;;3.57;3.33;;;33.90;67.70;;;;;;6097051;23;20508;-77
2023/06/19 12:14:47;;;;;;;4.23;3.93;;;34.20;68.10;;;;;;6097450;23;20438;-76
2023/06/19 12:17:14;;;;;;;4.50;4.13;;;34.10;66.50;;;;;;6096183;23;20469;-77
2023/06/19 12:19:41;;;;;;;4.97;3.90;;;33.90;67.20;;;;;;6101829;23;20533;-77
2023/06/19 12:22:10;;;;;;;3.80;3.43;;;33.20;68.00;;;;;;6098613;23;21575;-77
2023/06/19 12:24:37;;;;;;;3.30;3.00;;;33.10;69.10;;;;;;6103377;23;20438;-77
2023/06/19 12:27:05;;;;;;;4.17;3.87;;;33.30;69.70;;;;;;6086200;23;20529;-76
2023/06/19 12:29:32;;;;;;;3.67;3.43;;;33.60;68.50;;;;;;6092320;23;20798;-78
2023/06/19 12:32:03;;;;;;;4.23;3.93;;;33.70;67.40;;;;;;6107825;23;20443;-77
2023/06/19 12:34:30;;;;;;;3.80;3.50;;;33.80;67.10;;;;;;6105162;23;20429;-77
2023/06/19 12:36:58;;;;;;;4.07;3.87;;;33.60;67.50;;;;;;6089719;23;20455;-78
2023/06/19 12:39:27;;;;;;;3.80;3.60;;;33.50;68.70;;;;;;6105810;23;20484;-76
2023/06/19 12:41:54;;;;;;;4.10;3.80;;;33.60;68.60;;;;;;6096346;23;20506;-78
2023/06/19 12:44:22;;;;;;;3.53;3.33;;;33.90;68.50;;;;;;6081507;23;20434;-81
2023/06/19 12:46:50;;;;;;;3.70;3.50;;;34.30;66.70;;;;;;6092066;23;20440;-78
2023/06/19 12:49:17;;;;;;;4.67;4.07;;;34.80;65.30;;;;;;6101639;23;20456;-79
2023/06/19 12:51:43;;;;;;;4.00;3.70;;;35.30;64.50;;;;;;6099372;23;20442;-77